createdAt,value
2022-11-17T00:01:10.165Z,3.80
2022-11-17T00:03:39.899Z,4.33
2022-11-17T00:06:11.173Z,4.24
2022-11-17T00:08:40.900Z,4.10
2022-11-17T00:11:10.639Z,4.17
2022-11-17T00:13:58.497Z,3.77
2022-11-17T00:16:27.976Z,3.90
2022-11-17T00:19:15.019Z,3.70
2022-11-17T00:21:44.754Z,3.52
2022-11-17T00:24:18.590Z,3.50
2022-11-17T00:27:03.527Z,3.42
2022-11-17T00:29:37.371Z,3.27
2022-11-17T00:32:24.598Z,3.17
2022-11-17T00:34:54.625Z,3.55
2022-11-17T00:37:25.403Z,3.72
2022-11-17T00:40:00.313Z,3.50
2022-11-17T00:42:26.365Z,3.52
2022-11-17T00:44:56.180Z,3.10
2022-11-17T00:47:25.953Z,2.77
2022-11-17T00:49:55.703Z,2.73
2022-11-17T00:52:25.410Z,2.40
2022-11-17T00:54:55.429Z,2.90
2022-11-17T00:57:25.481Z,2.42
2022-11-17T00:59:55.520Z,2.80
2022-11-17T01:02:25.228Z,2.35
2022-11-17T01:04:54.951Z,2.73
2022-11-17T01:07:24.839Z,2.30
2022-11-17T01:09:54.693Z,2.70
2022-11-17T01:12:24.456Z,2.55
2022-11-17T01:14:54.479Z,2.52
2022-11-17T01:17:24.223Z,2.73
2022-11-17T01:19:53.969Z,2.60
2022-11-17T01:22:24.005Z,2.72
2022-11-17T01:24:53.762Z,3.00
2022-11-17T01:27:23.815Z,2.65
2022-11-17T01:29:53.516Z,2.50
2022-11-17T01:32:23.257Z,2.70
2022-11-17T01:34:52.982Z,2.13
2022-11-17T01:37:22.807Z,2.20
2022-11-17T01:39:52.536Z,1.90
2022-11-17T01:42:25.886Z,2.50
2022-11-17T01:45:01.062Z,1.90
2022-11-17T01:47:45.462Z,2.30
2022-11-17T01:50:18.084Z,2.57
2022-11-17T01:52:50.032Z,3.17
2022-11-17T01:55:22.069Z,2.77
2022-11-17T01:57:57.684Z,3.10
2022-11-17T02:00:27.987Z,2.80
2022-11-17T02:02:57.938Z,2.17
2022-11-17T02:05:36.243Z,2.53
2022-11-17T02:08:09.453Z,2.30
2022-11-17T02:10:39.706Z,2.50
2022-11-17T02:13:10.059Z,1.80
2022-11-17T02:15:39.898Z,2.30
2022-11-17T02:18:11.223Z,2.22
2022-11-17T02:20:44.385Z,1.70
2022-11-17T02:23:23.130Z,1.83
2022-11-17T02:26:13.607Z,1.70
2022-11-17T02:29:04.145Z,1.50
2022-11-17T02:31:53.254Z,1.90
2022-11-17T02:34:28.237Z,2.10
2022-11-17T02:37:12.524Z,1.87
2022-11-17T02:39:45.606Z,1.77
2022-11-17T02:42:25.636Z,1.83
2022-11-17T02:45:01.727Z,1.75
2022-11-17T02:47:33.759Z,1.87
2022-11-17T02:50:06.542Z,1.63
2022-11-17T02:52:36.555Z,2.00
2022-11-17T02:55:10.674Z,1.30
2022-11-17T02:57:42.251Z,2.00
2022-11-17T03:00:17.234Z,1.80
2022-11-17T03:02:58.855Z,1.83
2022-11-17T03:05:42.681Z,1.67
2022-11-17T03:08:32.918Z,1.40
2022-11-17T03:11:07.052Z,1.60
2022-11-17T03:13:51.272Z,1.43
2022-11-17T03:16:38.709Z,1.80
2022-11-17T03:19:17.273Z,1.77
2022-11-17T03:21:52.777Z,1.60
2022-11-17T03:24:34.253Z,1.57
2022-11-17T03:27:15.836Z,1.60
2022-11-17T03:29:48.610Z,1.47
2022-11-17T03:32:19.992Z,1.30
2022-11-17T03:35:01.697Z,1.17
2022-11-17T03:37:34.570Z,1.37
2022-11-17T03:40:12.349Z,1.15
2022-11-17T03:42:49.815Z,1.00
2022-11-17T03:45:22.583Z,1.30
2022-11-17T03:48:11.932Z,1.10
2022-11-17T03:50:45.005Z,0.82
2022-11-17T03:53:15.251Z,1.03
2022-11-17T03:55:56.893Z,0.97
2022-11-17T03:58:29.369Z,0.80
2022-11-17T04:01:02.735Z,0.90
2022-11-17T04:03:34.874Z,0.90
2022-11-17T04:06:05.140Z,1.03
2022-11-17T04:08:34.880Z,1.00
2022-11-17T04:11:22.539Z,1.10
2022-11-17T04:14:09.573Z,1.10
2022-11-17T04:16:38.999Z,1.22
2022-11-17T04:19:08.739Z,1.40
2022-11-17T04:21:38.813Z,1.30
2022-11-17T04:24:10.969Z,1.00
2022-11-17T04:26:58.419Z,1.17
2022-11-17T04:29:28.514Z,1.13
2022-11-17T04:31:58.232Z,1.30
2022-11-17T04:34:27.755Z,1.47
2022-11-17T04:36:57.552Z,1.30
2022-11-17T04:39:27.567Z,1.10
2022-11-17T04:41:58.933Z,1.30
2022-11-17T04:44:31.224Z,1.37
2022-11-17T04:47:02.679Z,1.57
2022-11-17T04:49:33.625Z,1.40
2022-11-17T04:52:03.527Z,1.50
2022-11-17T04:54:33.013Z,1.50
2022-11-17T04:57:03.512Z,1.50
2022-11-17T04:59:33.232Z,1.77
2022-11-17T05:02:06.073Z,1.53
2022-11-17T05:04:51.513Z,1.70
2022-11-17T05:07:21.352Z,1.73
2022-11-17T05:09:51.128Z,1.23
2022-11-17T05:12:38.376Z,1.27
2022-11-17T05:15:08.457Z,1.03
2022-11-17T05:17:38.467Z,1.20
2022-11-17T05:20:10.235Z,1.22
2022-11-17T05:23:00.235Z,1.30
2022-11-17T05:25:28.916Z,1.63
2022-11-17T05:27:59.508Z,1.90
2022-11-17T05:30:29.237Z,1.72
2022-11-17T05:32:58.966Z,1.90
2022-11-17T05:35:28.439Z,2.10
2022-11-17T05:37:58.184Z,1.53
2022-11-17T05:40:27.915Z,1.27
2022-11-17T05:42:57.640Z,1.60
2022-11-17T05:45:27.128Z,1.20
2022-11-17T05:47:56.847Z,1.07
2022-11-17T05:50:26.572Z,1.45
2022-11-17T05:52:57.663Z,1.27
2022-11-17T05:55:27.561Z,1.13
2022-11-17T05:58:00.824Z,1.30
2022-11-17T06:00:31.631Z,1.70
2022-11-17T06:03:04.388Z,1.07
2022-11-17T06:05:34.476Z,1.47
2022-11-17T06:08:07.085Z,1.05
2022-11-17T06:10:36.826Z,1.50
2022-11-17T06:13:06.627Z,1.73
2022-11-17T06:15:36.499Z,1.53
2022-11-17T06:18:19.005Z,1.67
2022-11-17T06:20:53.403Z,1.27
2022-11-17T06:23:25.817Z,1.30
2022-11-17T06:25:56.385Z,1.00
2022-11-17T06:28:28.113Z,1.17
2022-11-17T06:30:58.481Z,1.50
2022-11-17T06:33:31.454Z,1.40
2022-11-17T06:36:03.620Z,1.10
2022-11-17T06:38:35.114Z,1.43
2022-11-17T06:41:11.508Z,1.50
2022-11-17T06:43:37.468Z,1.33
2022-11-17T06:46:09.630Z,1.17
2022-11-17T06:48:39.413Z,1.37
2022-11-17T06:51:09.168Z,1.70
2022-11-17T06:53:38.997Z,1.37
2022-11-17T06:56:11.579Z,1.30
2022-11-17T06:58:41.946Z,1.20
2022-11-17T07:01:14.505Z,1.70
2022-11-17T07:03:44.598Z,1.55
2022-11-17T07:06:16.054Z,1.65
2022-11-17T07:08:46.197Z,2.07
2022-11-17T07:11:19.719Z,2.03
2022-11-17T07:13:49.282Z,1.75
2022-11-17T07:16:23.437Z,2.60
2022-11-17T07:18:53.477Z,1.00
2022-11-17T07:21:23.238Z,0.97
2022-11-17T07:23:52.772Z,1.10
2022-11-17T07:26:22.560Z,0.80
2022-11-17T07:28:52.345Z,0.87
2022-11-17T07:31:22.583Z,1.23
2022-11-17T07:33:54.606Z,1.25
2022-11-17T07:36:24.359Z,1.30
2022-11-17T07:38:54.193Z,1.50
2022-11-17T07:41:24.262Z,1.05
2022-11-17T07:43:54.077Z,1.03
2022-11-17T07:46:24.093Z,0.80
2022-11-17T07:48:57.028Z,1.13
2022-11-17T07:51:26.921Z,0.87
2022-11-17T07:53:56.958Z,0.85
2022-11-17T07:56:26.511Z,0.88
2022-11-17T07:58:56.236Z,1.00
2022-11-17T08:01:27.763Z,0.90
2022-11-17T08:03:58.448Z,1.00
2022-11-17T08:06:28.066Z,1.22
2022-11-17T08:08:57.890Z,1.13
2022-11-17T08:11:27.879Z,1.10
2022-11-17T08:13:57.468Z,1.35
2022-11-17T08:16:28.599Z,1.63
2022-11-17T08:18:58.700Z,1.20
2022-11-17T08:21:28.681Z,1.17
2022-11-17T08:24:00.138Z,0.90
2022-11-17T08:26:29.920Z,0.90
2022-11-17T08:29:01.084Z,0.70
2022-11-17T08:31:30.960Z,0.60
2022-11-17T08:34:00.729Z,0.80
2022-11-17T08:36:30.624Z,0.77
2022-11-17T08:39:00.377Z,1.13
2022-11-17T08:41:30.183Z,0.80
2022-11-17T08:44:00.377Z,0.57
2022-11-17T08:46:29.929Z,0.70
2022-11-17T08:49:01.093Z,0.90
2022-11-17T08:51:30.968Z,1.07
2022-11-17T08:54:00.724Z,1.10
2022-11-17T08:56:30.514Z,0.83
2022-11-17T08:59:00.350Z,0.50
2022-11-17T09:01:30.178Z,0.70
2022-11-17T09:03:59.925Z,1.00
2022-11-17T09:06:29.699Z,0.90
2022-11-17T09:08:59.767Z,0.50
2022-11-17T09:11:29.824Z,0.80
2022-11-17T09:13:59.614Z,0.90
2022-11-17T09:16:29.685Z,0.90
2022-11-17T09:18:59.738Z,0.75
2022-11-17T09:21:31.316Z,0.83
2022-11-17T09:24:01.270Z,0.73
2022-11-17T09:26:31.087Z,0.50
2022-11-17T09:29:04.665Z,0.60
2022-11-17T09:31:34.715Z,0.90
2022-11-17T09:34:06.634Z,0.60
2022-11-17T09:36:37.123Z,1.27
2022-11-17T09:39:06.932Z,0.70
2022-11-17T09:41:44.960Z,0.50
2022-11-17T09:44:41.956Z,0.90
2022-11-17T09:47:26.713Z,0.50
2022-11-17T09:50:16.097Z,0.60
2022-11-17T09:53:03.819Z,0.60
2022-11-17T09:55:39.066Z,0.70
2022-11-17T09:58:29.623Z,0.40
2022-11-17T10:00:59.803Z,0.60
2022-11-17T10:03:37.519Z,0.73
2022-11-17T10:08:45.106Z,0.68
2022-11-17T10:11:32.638Z,0.57
2022-11-17T10:16:57.161Z,0.82
2022-11-17T10:19:29.621Z,0.70
2022-11-17T10:22:02.732Z,0.80
2022-11-17T10:24:53.905Z,0.60
2022-11-17T10:27:32.310Z,0.90
2022-11-17T10:30:05.189Z,1.00
2022-11-17T10:32:38.162Z,1.00
2022-11-17T10:35:25.950Z,0.90
2022-11-17T10:38:01.663Z,0.70
2022-11-17T10:40:33.555Z,0.67
2022-11-17T10:43:06.688Z,0.90
2022-11-17T10:45:36.660Z,1.10
2022-11-17T10:48:13.051Z,1.10
2022-11-17T10:50:54.303Z,0.80
2022-11-17T10:53:42.986Z,0.70
2022-11-17T10:56:18.905Z,0.93
2022-11-17T10:58:57.438Z,1.07
2022-11-17T11:01:39.053Z,1.10
2022-11-17T11:04:29.947Z,0.70
2022-11-17T11:07:17.299Z,0.60
2022-11-17T11:09:58.832Z,0.70
2022-11-17T11:12:31.637Z,0.87
2022-11-17T11:15:03.237Z,0.70
2022-11-17T11:17:33.055Z,0.60
2022-11-17T11:20:02.843Z,0.63
2022-11-17T11:22:44.104Z,0.50
2022-11-17T11:25:16.886Z,0.80
2022-11-17T11:28:04.547Z,0.77
2022-11-17T11:30:37.322Z,0.90
2022-11-17T11:33:28.196Z,0.87
2022-11-17T11:36:11.424Z,1.10
2022-11-17T11:38:49.741Z,0.50
2022-11-17T11:41:28.269Z,0.90
2022-11-17T11:44:06.835Z,0.63
2022-11-17T11:46:51.518Z,0.70
2022-11-17T11:49:40.338Z,0.50
2022-11-17T11:52:14.127Z,0.60
2022-11-17T11:54:50.852Z,0.70
2022-11-17T11:57:22.009Z,0.70
2022-11-17T12:00:09.427Z,0.60
2022-11-17T12:03:05.750Z,0.77
2022-11-17T12:05:44.486Z,0.85
2022-11-17T12:08:37.997Z,0.78
2022-11-17T12:11:28.230Z,0.57
2022-11-17T12:14:00.029Z,0.83
2022-11-17T12:16:32.790Z,0.93
2022-11-17T12:19:03.053Z,0.50
2022-11-17T12:21:32.962Z,0.50
2022-11-17T12:24:11.858Z,0.80
2022-11-17T12:26:41.819Z,0.63
2022-11-17T12:29:26.427Z,0.90
2022-11-17T12:32:01.198Z,0.90
2022-11-17T12:34:36.983Z,0.60
2022-11-17T12:37:22.423Z,0.60
2022-11-17T12:40:12.011Z,1.30
2022-11-17T12:42:44.791Z,0.70
2022-11-17T12:45:14.589Z,1.02
2022-11-17T12:48:04.791Z,0.80
2022-11-17T12:50:20.800Z,0.80
2022-11-17T12:53:14.438Z,0.60
2022-11-17T12:55:49.624Z,1.00
2022-11-17T12:58:47.663Z,0.60
2022-11-17T13:01:36.614Z,0.50
2022-11-17T13:04:24.642Z,0.70
2022-11-17T13:07:02.875Z,1.20
2022-11-17T13:09:36.925Z,0.60
2022-11-17T13:12:10.674Z,0.88
2022-11-17T13:14:57.978Z,0.60
2022-11-17T13:17:30.456Z,1.20
2022-11-17T13:20:28.288Z,0.87
2022-11-17T13:23:08.078Z,0.80
2022-11-17T13:25:37.862Z,0.80
2022-11-17T13:28:27.028Z,0.93
2022-11-17T13:30:56.690Z,0.60
2022-11-17T13:33:27.568Z,0.70
2022-11-17T13:36:19.580Z,0.40
2022-11-17T13:38:52.069Z,0.82
2022-11-17T13:41:24.616Z,0.60
2022-11-17T13:43:55.994Z,0.60
2022-11-17T13:46:25.602Z,0.70
2022-11-17T13:48:55.202Z,0.60
2022-11-17T13:51:32.449Z,0.90
2022-11-17T13:54:07.891Z,0.83
2022-11-17T13:56:42.824Z,0.80
2022-11-17T13:59:24.715Z,0.63
2022-11-17T14:02:19.755Z,0.83
2022-11-17T14:05:15.003Z,0.80
2022-11-17T14:07:45.847Z,0.90
2022-11-17T14:10:24.323Z,0.60
2022-11-17T14:13:05.201Z,0.87
2022-11-17T14:15:47.903Z,0.90
2022-11-17T14:18:30.574Z,0.70
2022-11-17T14:21:18.779Z,1.13
2022-11-17T14:23:48.515Z,0.90
2022-11-17T14:26:21.191Z,0.80
2022-11-17T14:28:52.276Z,0.70
2022-11-17T14:31:22.307Z,0.60
2022-11-17T14:33:52.747Z,0.60
2022-11-17T14:36:22.411Z,0.60
2022-11-17T14:38:52.479Z,0.50
2022-11-17T14:41:22.222Z,0.70
2022-11-17T14:43:51.960Z,0.57
2022-11-17T14:46:27.534Z,0.55
2022-11-17T14:48:57.366Z,0.50
2022-11-17T14:51:27.114Z,0.70
2022-11-17T14:53:56.948Z,0.70
2022-11-17T14:56:26.796Z,0.70
2022-11-17T14:58:59.383Z,0.70
2022-11-17T15:01:31.954Z,0.90
2022-11-17T15:04:27.212Z,0.80
2022-11-17T15:06:35.667Z,1.17
2022-11-17T15:09:06.164Z,0.55
2022-11-17T15:11:40.486Z,0.93
2022-11-17T15:14:11.428Z,0.40
2022-11-17T15:16:41.377Z,0.73
2022-11-17T15:19:12.111Z,1.37
2022-11-17T15:21:41.611Z,0.85
2022-11-17T15:24:11.218Z,0.75
2022-11-17T15:26:40.993Z,2.90
2022-11-17T15:29:15.267Z,1.30
2022-11-17T15:31:45.418Z,1.20
2022-11-17T15:34:19.905Z,1.57
2022-11-17T15:36:46.841Z,0.77
2022-11-17T15:39:17.007Z,0.90
2022-11-17T15:41:47.320Z,1.40
2022-11-17T15:44:18.962Z,1.23
2022-11-17T15:46:48.818Z,1.83
2022-11-17T15:49:18.973Z,1.40
2022-11-17T15:51:48.886Z,1.07
2022-11-17T15:54:20.965Z,1.20
2022-11-17T15:56:51.689Z,0.83
2022-11-17T15:59:21.162Z,1.20
2022-11-17T16:01:51.397Z,1.22
2022-11-17T16:04:21.514Z,0.70
2022-11-17T16:06:51.929Z,1.20
2022-11-17T16:09:22.403Z,0.60
2022-11-17T16:11:52.291Z,0.90
2022-11-17T16:14:22.007Z,0.97
2022-11-17T16:16:51.768Z,0.80
2022-11-17T16:19:21.499Z,1.00
2022-11-17T16:21:51.304Z,1.10
2022-11-17T16:24:20.769Z,0.80
2022-11-17T16:26:51.181Z,1.40
2022-11-17T16:29:20.900Z,1.10
2022-11-17T16:31:51.107Z,1.10
2022-11-17T16:34:21.810Z,0.90
2022-11-17T16:36:51.673Z,1.10
2022-11-17T16:39:21.842Z,0.90
2022-11-17T16:41:52.526Z,1.20
2022-11-17T16:44:22.212Z,0.93
2022-11-17T16:46:52.106Z,1.00
2022-11-17T16:49:22.140Z,1.20
2022-11-17T16:51:54.101Z,1.15
2022-11-17T16:54:24.227Z,0.93
2022-11-17T16:56:53.969Z,0.73
2022-11-17T16:59:23.776Z,1.20
2022-11-17T17:01:53.627Z,0.70
2022-11-17T17:04:23.076Z,1.00
2022-11-17T17:06:52.894Z,1.43
2022-11-17T17:09:27.902Z,1.17
2022-11-17T17:11:55.226Z,1.00
2022-11-17T17:14:25.291Z,1.00
2022-11-17T17:16:55.022Z,1.03
2022-11-17T17:19:24.766Z,1.10
2022-11-17T17:21:54.496Z,1.30
2022-11-17T17:24:24.433Z,1.27
2022-11-17T17:26:54.175Z,1.30
2022-11-17T17:29:23.920Z,1.07
2022-11-17T17:31:53.949Z,1.65
2022-11-17T17:34:24.015Z,1.37
2022-11-17T17:36:53.784Z,1.00
2022-11-17T17:39:23.271Z,1.25
2022-11-17T17:41:53.381Z,1.77
2022-11-17T17:44:22.896Z,1.37
2022-11-17T17:46:52.621Z,1.10
2022-11-17T17:49:22.102Z,2.50
2022-11-17T17:51:52.131Z,1.90
2022-11-17T17:54:24.087Z,1.20
2022-11-17T17:56:53.915Z,0.90
2022-11-17T17:59:23.732Z,0.90
2022-11-17T18:01:53.471Z,1.30
2022-11-17T18:04:23.362Z,1.30
2022-11-17T18:06:54.800Z,1.00
2022-11-17T18:09:24.566Z,1.20
2022-11-17T18:11:54.298Z,1.10
2022-11-17T18:14:26.999Z,1.10
2022-11-17T18:16:56.746Z,1.40
2022-11-17T18:19:32.609Z,2.08
2022-11-17T18:21:58.767Z,1.80
2022-11-17T18:24:28.589Z,1.20
2022-11-17T18:26:58.308Z,1.13
2022-11-17T18:29:28.024Z,1.20
2022-11-17T18:31:57.887Z,1.10
2022-11-17T18:34:27.694Z,0.98
2022-11-17T18:36:57.501Z,1.10
2022-11-17T18:39:28.311Z,0.90
2022-11-17T18:41:58.120Z,0.93
2022-11-17T18:44:27.907Z,1.27
2022-11-17T18:47:02.567Z,1.00
2022-11-17T18:49:29.437Z,1.60
2022-11-17T18:51:59.202Z,1.00
2022-11-17T18:54:29.017Z,1.20
2022-11-17T18:57:00.037Z,1.37
2022-11-17T18:59:29.654Z,1.20
2022-11-17T19:01:59.978Z,1.30
2022-11-17T19:04:29.676Z,1.10
2022-11-17T19:07:00.826Z,1.35
2022-11-17T19:09:30.459Z,1.25
2022-11-17T19:12:00.416Z,1.67
2022-11-17T19:14:30.141Z,1.13
2022-11-17T19:17:00.174Z,1.05
2022-11-17T19:19:29.904Z,1.20
2022-11-17T19:21:59.620Z,1.30
2022-11-17T19:24:29.754Z,1.47
2022-11-17T19:26:59.595Z,1.20
2022-11-17T19:29:29.765Z,1.50
2022-11-17T19:32:00.103Z,1.60
2022-11-17T19:34:29.825Z,1.62
2022-11-17T19:36:59.570Z,1.53
2022-11-17T19:39:29.403Z,1.50
2022-11-17T19:41:59.163Z,1.93
2022-11-17T19:44:29.865Z,1.30
2022-11-17T19:46:59.599Z,1.00
2022-11-17T19:49:29.335Z,1.30
2022-11-17T19:51:59.174Z,1.90
2022-11-17T19:54:29.380Z,1.40
2022-11-17T19:56:59.126Z,1.77
2022-11-17T19:59:28.949Z,1.20
2022-11-17T20:01:58.744Z,1.27
2022-11-17T20:04:28.259Z,1.40
2022-11-17T20:06:58.229Z,1.30
2022-11-17T20:09:27.959Z,1.57
2022-11-17T20:11:58.044Z,1.55
2022-11-17T20:14:27.495Z,1.40
2022-11-17T20:16:57.594Z,1.35
2022-11-17T20:19:27.332Z,2.00
2022-11-17T20:21:56.924Z,1.70
2022-11-17T20:24:26.460Z,1.70
2022-11-17T20:26:56.278Z,1.70
2022-11-17T20:29:26.026Z,1.63
2022-11-17T20:31:55.859Z,1.30
2022-11-17T20:34:25.737Z,1.70
2022-11-17T20:36:55.536Z,1.30
2022-11-17T20:39:24.967Z,1.45
2022-11-17T20:41:54.745Z,1.60
2022-11-17T20:44:24.730Z,1.60
2022-11-17T20:46:55.890Z,1.80
2022-11-17T20:49:27.761Z,1.60
2022-11-17T20:51:57.536Z,1.40
2022-11-17T20:54:27.457Z,1.52
2022-11-17T20:56:57.290Z,1.40
2022-11-17T20:59:27.206Z,1.63
2022-11-17T21:01:56.972Z,1.60
2022-11-17T21:04:27.068Z,1.75
2022-11-17T21:06:56.846Z,1.60
2022-11-17T21:09:26.626Z,1.87
2022-11-17T21:11:59.046Z,1.70
2022-11-17T21:14:30.666Z,2.03
2022-11-17T21:17:00.819Z,2.00
2022-11-17T21:19:32.398Z,1.97
2022-11-17T21:22:02.212Z,1.83
2022-11-17T21:24:31.980Z,2.33
2022-11-17T21:27:01.914Z,1.90
2022-11-17T21:29:32.945Z,1.80
2022-11-17T21:32:02.696Z,1.93
2022-11-17T21:34:32.470Z,2.20
2022-11-17T21:37:03.735Z,1.97
2022-11-17T21:39:33.473Z,1.90
2022-11-17T21:42:03.231Z,2.33
2022-11-17T21:44:33.281Z,2.20
2022-11-17T21:47:03.314Z,2.35
2022-11-17T21:49:33.065Z,1.60
2022-11-17T21:52:03.101Z,2.15
2022-11-17T21:54:32.843Z,2.00
2022-11-17T21:57:02.593Z,2.17
2022-11-17T21:59:32.330Z,1.93
2022-11-17T22:02:02.362Z,2.20
2022-11-17T22:04:32.104Z,2.27
2022-11-17T22:07:01.893Z,2.30
2022-11-17T22:09:31.881Z,2.17
2022-11-17T22:12:01.687Z,1.93
2022-11-17T22:14:32.033Z,1.90
2022-11-17T22:17:01.755Z,2.10
2022-11-17T22:19:33.568Z,2.15
2022-11-17T22:22:03.287Z,2.20
2022-11-17T22:24:33.033Z,1.83
2022-11-17T22:27:02.485Z,2.40
2022-11-17T22:29:32.214Z,2.20
2022-11-17T22:32:01.946Z,1.80
2022-11-17T22:34:31.681Z,2.10
2022-11-17T22:37:01.427Z,2.10
2022-11-17T22:39:30.870Z,2.35
2022-11-17T22:42:00.907Z,1.72
2022-11-17T22:44:30.726Z,2.13
2022-11-17T22:47:00.447Z,2.00
2022-11-17T22:49:30.200Z,2.53
2022-11-17T22:52:07.480Z,2.07
2022-11-17T22:54:37.865Z,3.00
2022-11-17T22:57:07.583Z,1.90
2022-11-17T22:59:37.339Z,2.57
2022-11-17T23:02:08.366Z,2.73
2022-11-17T23:04:38.117Z,2.30
2022-11-17T23:07:07.945Z,1.87
2022-11-17T23:09:37.777Z,2.40
2022-11-17T23:12:09.118Z,2.23
2022-11-17T23:14:38.849Z,2.43
2022-11-17T23:17:08.598Z,2.67
2022-11-17T23:19:38.332Z,2.57
2022-11-17T23:22:11.682Z,2.30
2022-11-17T23:24:41.488Z,3.10
2022-11-17T23:27:11.318Z,3.30
2022-11-17T23:29:41.046Z,3.00
2022-11-17T23:32:12.148Z,2.70
2022-11-17T23:34:41.906Z,2.60
2022-11-17T23:37:11.908Z,2.57
2022-11-17T23:39:41.940Z,2.98
2022-11-17T23:42:13.814Z,2.35
2022-11-17T23:44:43.608Z,2.73
2022-11-17T23:47:13.348Z,2.60
2022-11-17T23:49:43.110Z,2.50
2022-11-17T23:52:14.143Z,2.66
2022-11-17T23:54:43.882Z,2.63
2022-11-17T23:57:13.627Z,2.53
2022-11-17T23:59:43.672Z,2.60
